createdAt,value
2023-02-28T00:00:32.955Z,5.88
2023-02-28T00:01:35.736Z,9.82
2023-02-28T00:02:39.194Z,9.23
2023-02-28T00:03:41.858Z,11.50
2023-02-28T00:04:44.735Z,13.32
2023-02-28T00:05:47.365Z,11.75
2023-02-28T00:06:49.758Z,9.43
2023-02-28T00:07:52.282Z,5.40
2023-02-28T00:08:54.802Z,5.82
2023-02-28T00:09:57.683Z,8.88
2023-02-28T00:11:05.364Z,7.50
2023-02-28T00:12:11.155Z,9.73
2023-02-28T00:13:14.365Z,11.02
2023-02-28T00:14:16.892Z,8.00
2023-02-28T00:15:19.893Z,8.32
2023-02-28T00:16:23.591Z,10.23
2023-02-28T00:17:26.127Z,8.45
2023-02-28T00:18:31.112Z,10.50
2023-02-28T00:19:33.928Z,10.52
2023-02-28T00:20:36.337Z,11.23
2023-02-28T00:21:41.850Z,7.88
2023-02-28T00:22:47.137Z,8.52
2023-02-28T00:23:49.684Z,9.38
2023-02-28T00:24:52.175Z,7.78
2023-02-28T00:25:55.055Z,7.88
2023-02-28T00:26:57.579Z,11.15
2023-02-28T00:27:59.975Z,11.05
2023-02-28T00:29:02.509Z,9.25
2023-02-28T00:30:06.342Z,12.43
2023-02-28T00:31:08.966Z,9.93
2023-02-28T00:32:11.544Z,10.68
2023-02-28T00:33:14.256Z,10.70
2023-02-28T00:34:16.793Z,11.73
2023-02-28T00:35:19.423Z,10.55
2023-02-28T00:36:21.950Z,7.25
2023-02-28T00:37:24.581Z,12.05
2023-02-28T00:38:26.984Z,9.77
2023-02-28T00:39:29.864Z,9.18
2023-02-28T00:40:32.862Z,11.15
2023-02-28T00:41:35.385Z,8.85
2023-02-28T00:42:37.903Z,7.18
2023-02-28T00:43:41.068Z,10.07
2023-02-28T00:44:43.562Z,13.15
2023-02-28T00:45:47.778Z,9.30
2023-02-28T00:46:50.154Z,7.30
2023-02-28T00:47:52.669Z,9.77
2023-02-28T00:48:55.430Z,10.10
2023-02-28T00:49:57.950Z,9.45
2023-02-28T00:51:00.712Z,8.40
2023-02-28T00:52:03.238Z,8.38
2023-02-28T00:53:05.753Z,6.03
2023-02-28T00:54:08.166Z,8.73
2023-02-28T00:55:11.032Z,10.27
2023-02-28T00:56:13.562Z,7.07
2023-02-28T00:57:16.073Z,7.88
2023-02-28T00:58:18.594Z,8.70
2023-02-28T00:59:21.233Z,7.88
2023-02-28T01:00:23.958Z,7.93
2023-02-28T01:01:26.800Z,7.28
2023-02-28T01:02:29.408Z,7.38
2023-02-28T01:03:31.919Z,6.70
2023-02-28T01:04:34.603Z,7.60
2023-02-28T01:05:37.443Z,7.15
2023-02-28T01:06:40.082Z,6.90
2023-02-28T01:07:42.484Z,8.00
2023-02-28T01:08:45.122Z,6.78
2023-02-28T01:09:47.640Z,12.07
2023-02-28T01:10:50.521Z,6.45
2023-02-28T01:11:53.047Z,6.97
2023-02-28T01:12:55.565Z,7.38
2023-02-28T01:13:58.443Z,5.93
2023-02-28T01:15:00.870Z,8.57
2023-02-28T01:16:03.509Z,7.88
2023-02-28T01:17:06.726Z,7.15
2023-02-28T01:18:09.255Z,15.38
2023-02-28T01:19:12.249Z,8.75
2023-02-28T01:20:15.019Z,10.75
2023-02-28T01:21:19.334Z,7.32
2023-02-28T01:22:21.853Z,9.18
2023-02-28T01:23:25.472Z,9.00
2023-02-28T01:24:27.978Z,9.27
2023-02-28T01:25:30.862Z,8.27
2023-02-28T01:26:33.390Z,7.00
2023-02-28T01:27:36.858Z,6.20
2023-02-28T01:28:39.373Z,8.50
2023-02-28T01:29:42.020Z,7.28
2023-02-28T01:30:50.026Z,9.38
2023-02-28T01:31:52.908Z,10.65
2023-02-28T01:32:56.177Z,6.13
2023-02-28T01:33:58.703Z,7.13
2023-02-28T01:35:04.700Z,6.18
2023-02-28T01:36:19.099Z,11.40
2023-02-28T01:37:21.500Z,7.10
2023-02-28T01:38:24.047Z,6.15
2023-02-28T01:39:27.397Z,7.85
2023-02-28T01:40:30.042Z,7.47
2023-02-28T01:41:34.702Z,10.98
2023-02-28T01:42:37.222Z,6.38
2023-02-28T01:43:45.511Z,6.28
2023-02-28T01:45:26.912Z,7.18
2023-02-28T01:46:29.333Z,6.82
2023-02-28T01:47:37.348Z,7.03
2023-02-28T01:48:48.263Z,8.30
2023-02-28T01:51:02.425Z,7.28
2023-02-28T01:52:05.074Z,6.43
2023-02-28T01:53:11.682Z,10.20
2023-02-28T01:54:19.232Z,6.95
2023-02-28T01:55:24.386Z,10.18
2023-02-28T01:56:31.239Z,5.72
2023-02-28T01:57:38.911Z,7.75
2023-02-28T01:58:41.551Z,10.15
2023-02-28T01:59:53.577Z,6.40
2023-02-28T02:00:56.071Z,8.77
2023-02-28T02:01:58.623Z,9.07
2023-02-28T02:03:09.991Z,8.35
2023-02-28T02:04:12.633Z,8.20
2023-02-28T02:05:20.685Z,10.23
2023-02-28T02:06:41.552Z,7.85
2023-02-28T02:07:49.840Z,6.18
2023-02-28T02:08:53.552Z,8.02
2023-02-28T02:10:25.837Z,12.85
2023-02-28T02:11:30.908Z,9.05
2023-02-28T02:12:57.159Z,9.50
2023-02-28T02:14:30.766Z,7.50
2023-02-28T02:15:57.783Z,6.40
2023-02-28T02:17:14.319Z,9.82
2023-02-28T02:18:47.682Z,8.45
2023-02-28T02:20:37.011Z,9.65
2023-02-28T02:22:03.530Z,8.80
2023-02-28T02:23:33.431Z,8.52
2023-02-28T02:24:48.645Z,8.20
2023-02-28T02:25:59.692Z,8.88
2023-02-28T02:27:13.967Z,15.15
2023-02-28T02:28:41.212Z,13.63
2023-02-28T02:30:14.455Z,8.82
2023-02-28T02:31:41.603Z,10.52
2023-02-28T02:32:56.210Z,11.80
2023-02-28T02:34:20.454Z,8.48
2023-02-28T02:35:30.815Z,8.07
2023-02-28T02:36:55.133Z,7.10
2023-02-28T02:38:38.575Z,10.30
2023-02-28T02:40:03.664Z,9.30
2023-02-28T02:41:24.058Z,10.45
2023-02-28T02:42:44.823Z,9.23
2023-02-28T02:43:47.218Z,10.27
2023-02-28T02:44:57.055Z,6.85
2023-02-28T02:46:20.749Z,8.57
2023-02-28T02:47:26.590Z,10.18
2023-02-28T02:48:33.421Z,10.40
2023-02-28T02:49:39.308Z,8.20
2023-02-28T02:50:47.824Z,7.25
2023-02-28T02:51:53.100Z,11.05
2023-02-28T02:53:01.505Z,6.93
2023-02-28T02:54:09.086Z,7.22
2023-02-28T02:55:14.231Z,13.10
2023-02-28T02:56:20.769Z,8.40
2023-02-28T02:57:36.443Z,10.73
2023-02-28T02:58:43.334Z,8.60
2023-02-28T02:59:46.176Z,11.10
2023-02-28T03:00:54.233Z,11.57
2023-02-28T03:02:02.111Z,10.65
2023-02-28T03:03:07.994Z,9.30
2023-02-28T03:04:17.714Z,9.00
2023-02-28T03:05:46.032Z,10.25
2023-02-28T03:06:49.036Z,13.20
2023-02-28T03:07:51.437Z,12.32
2023-02-28T03:08:54.678Z,9.80
2023-02-28T03:09:59.236Z,12.88
2023-02-28T03:11:04.408Z,8.52
2023-02-28T03:12:14.126Z,7.88
2023-02-28T03:13:25.903Z,9.07
2023-02-28T03:14:42.689Z,10.05
2023-02-28T03:16:12.589Z,8.00
2023-02-28T03:17:49.061Z,11.70
2023-02-28T03:19:12.931Z,11.23
2023-02-28T03:20:33.684Z,10.82
2023-02-28T03:21:50.127Z,10.55
2023-02-28T03:23:14.373Z,7.30
2023-02-28T03:24:31.406Z,9.55
2023-02-28T03:25:48.572Z,10.85
2023-02-28T03:27:24.571Z,9.13
2023-02-28T03:28:43.068Z,11.48
2023-02-28T03:30:07.416Z,11.88
2023-02-28T03:31:30.357Z,10.80
2023-02-28T03:33:06.574Z,11.43
2023-02-28T03:34:25.667Z,8.70
2023-02-28T03:35:40.113Z,11.00
2023-02-28T03:36:49.018Z,13.18
2023-02-28T03:37:55.301Z,10.80
2023-02-28T03:39:06.590Z,9.10
2023-02-28T03:40:14.384Z,10.98
2023-02-28T03:41:24.709Z,11.77
2023-02-28T03:42:30.706Z,9.77
2023-02-28T03:43:38.999Z,11.45
2023-02-28T03:44:49.906Z,9.68
2023-02-28T03:45:53.779Z,10.82
2023-02-28T03:47:03.952Z,10.02
2023-02-28T03:48:32.892Z,10.43
2023-02-28T03:49:44.634Z,12.05
2023-02-28T03:50:50.407Z,14.45
2023-02-28T03:51:55.313Z,10.23
2023-02-28T03:53:08.199Z,11.02
2023-02-28T03:54:17.150Z,13.93
2023-02-28T03:55:20.872Z,12.18
2023-02-28T03:56:32.036Z,11.60
2023-02-28T03:57:52.327Z,7.70
2023-02-28T03:58:54.726Z,9.50
2023-02-28T04:00:32.899Z,12.63
2023-02-28T04:01:40.234Z,8.02
2023-02-28T04:02:43.324Z,11.40
2023-02-28T04:03:46.315Z,11.07
2023-02-28T04:04:50.676Z,10.63
2023-02-28T04:05:56.398Z,9.38
2023-02-28T04:07:12.977Z,9.73
2023-02-28T04:08:15.480Z,9.77
2023-02-28T04:09:18.360Z,9.85
2023-02-28T04:10:21.242Z,9.30
2023-02-28T04:11:43.460Z,13.02
2023-02-28T04:12:45.964Z,13.15
2023-02-28T04:13:49.450Z,8.18
2023-02-28T04:14:52.087Z,8.80
2023-02-28T04:15:54.659Z,13.02
2023-02-28T04:16:57.246Z,8.55
2023-02-28T04:17:59.773Z,15.02
2023-02-28T04:19:06.867Z,10.57
2023-02-28T04:20:10.824Z,7.90
2023-02-28T04:21:13.716Z,11.70
2023-02-28T04:22:18.260Z,8.75
2023-02-28T04:23:20.769Z,7.57
2023-02-28T04:24:27.733Z,11.15
2023-02-28T04:25:30.132Z,10.32
2023-02-28T04:26:37.335Z,8.48
2023-02-28T04:27:39.733Z,10.40
2023-02-28T04:28:42.253Z,8.32
2023-02-28T04:29:45.653Z,10.05
2023-02-28T04:30:48.375Z,9.82
2023-02-28T04:31:51.112Z,8.90
2023-02-28T04:32:53.782Z,11.35
2023-02-28T04:33:56.444Z,11.13
2023-02-28T04:34:58.937Z,10.15
2023-02-28T04:36:08.426Z,11.32
2023-02-28T04:37:13.797Z,10.82
2023-02-28T04:38:16.581Z,9.35
2023-02-28T04:39:19.581Z,9.80
2023-02-28T04:40:21.987Z,9.93
2023-02-28T04:41:24.859Z,9.30
2023-02-28T04:42:27.748Z,10.35
2023-02-28T04:43:31.474Z,8.40
2023-02-28T04:44:34.139Z,7.93
2023-02-28T04:45:36.667Z,10.98
2023-02-28T04:46:39.277Z,8.35
2023-02-28T04:47:41.802Z,7.72
2023-02-28T04:48:45.388Z,11.00
2023-02-28T04:49:47.906Z,12.40
2023-02-28T04:50:50.424Z,10.77
2023-02-28T04:51:53.950Z,14.30
2023-02-28T04:52:57.508Z,12.65
2023-02-28T04:54:00.029Z,10.25
2023-02-28T04:55:02.794Z,11.38
2023-02-28T04:56:05.670Z,10.30
2023-02-28T04:57:08.188Z,9.00
2023-02-28T04:58:10.952Z,9.82
2023-02-28T04:59:13.354Z,9.02
2023-02-28T05:00:17.798Z,9.30
2023-02-28T05:01:30.735Z,8.88
2023-02-28T05:02:36.484Z,11.50
2023-02-28T05:03:41.675Z,12.00
2023-02-28T05:04:44.328Z,8.23
2023-02-28T05:05:46.835Z,10.85
2023-02-28T05:06:49.352Z,13.95
2023-02-28T05:07:51.879Z,11.15
2023-02-28T05:08:54.395Z,9.25
2023-02-28T05:09:57.046Z,14.02
2023-02-28T05:11:01.718Z,10.82
2023-02-28T05:12:04.380Z,8.85
2023-02-28T05:13:06.809Z,11.95
2023-02-28T05:14:14.201Z,13.07
2023-02-28T05:15:18.041Z,13.77
2023-02-28T05:16:21.368Z,7.88
2023-02-28T05:17:23.812Z,16.67
2023-02-28T05:18:26.322Z,12.52
2023-02-28T05:19:29.206Z,11.38
2023-02-28T05:20:31.726Z,10.43
2023-02-28T05:21:39.286Z,14.15
2023-02-28T05:22:42.776Z,12.30
2023-02-28T05:23:46.830Z,12.88
2023-02-28T05:24:50.446Z,7.50
2023-02-28T05:25:53.929Z,9.57
2023-02-28T05:26:56.686Z,13.90
2023-02-28T05:27:59.211Z,13.65
2023-02-28T05:29:01.731Z,13.68
2023-02-28T05:30:05.458Z,11.07
2023-02-28T05:31:11.963Z,9.68
2023-02-28T05:32:14.481Z,14.75
2023-02-28T05:33:16.980Z,9.20
2023-02-28T05:34:19.518Z,8.10
2023-02-28T05:35:22.019Z,10.00
2023-02-28T05:36:24.898Z,11.07
2023-02-28T05:37:27.414Z,8.75
2023-02-28T05:38:29.933Z,9.75
2023-02-28T05:39:32.455Z,11.57
2023-02-28T05:40:34.976Z,10.27
2023-02-28T05:41:37.493Z,10.65
2023-02-28T05:42:40.134Z,10.88
2023-02-28T05:43:42.787Z,9.63
2023-02-28T05:44:45.295Z,8.82
2023-02-28T05:45:47.725Z,9.63
2023-02-28T05:46:50.252Z,8.40
2023-02-28T05:47:56.706Z,7.90
2023-02-28T05:49:01.276Z,11.52
2023-02-28T05:50:05.239Z,10.27
2023-02-28T05:51:09.072Z,11.98
2023-02-28T05:52:11.823Z,9.45
2023-02-28T05:53:14.348Z,10.27
2023-02-28T05:54:16.746Z,14.00
2023-02-28T05:55:19.511Z,10.38
2023-02-28T05:56:21.915Z,10.70
2023-02-28T05:57:25.053Z,9.52
2023-02-28T05:58:31.815Z,12.38
2023-02-28T05:59:34.513Z,12.43
2023-02-28T06:00:37.152Z,9.63
2023-02-28T06:01:40.757Z,10.15
2023-02-28T06:02:43.285Z,9.40
2023-02-28T06:03:45.749Z,11.02
2023-02-28T06:04:48.197Z,10.20
2023-02-28T06:05:51.557Z,10.43
2023-02-28T06:06:54.323Z,8.80
2023-02-28T06:07:56.730Z,13.02
2023-02-28T06:08:59.356Z,9.40
2023-02-28T06:10:01.882Z,8.38
2023-02-28T06:11:05.244Z,8.60
2023-02-28T06:12:10.400Z,10.02
2023-02-28T06:13:13.941Z,5.80
2023-02-28T06:14:19.283Z,10.40
2023-02-28T06:15:22.068Z,6.78
2023-02-28T06:16:25.492Z,13.50
2023-02-28T06:17:28.048Z,7.65
2023-02-28T06:18:30.334Z,9.85
2023-02-28T06:19:33.089Z,7.65
2023-02-28T06:20:37.365Z,8.45
2023-02-28T06:21:39.926Z,8.45
2023-02-28T06:22:42.459Z,11.23
2023-02-28T06:23:45.095Z,8.30
2023-02-28T06:24:47.730Z,8.90
2023-02-28T06:25:50.730Z,9.05
2023-02-28T06:26:53.266Z,7.80
2023-02-28T06:27:56.513Z,11.43
2023-02-28T06:28:59.137Z,9.05
2023-02-28T06:30:01.657Z,7.10
2023-02-28T06:31:12.349Z,6.45
2023-02-28T06:32:14.911Z,9.88
2023-02-28T06:33:17.499Z,9.18
2023-02-28T06:34:19.908Z,7.00
2023-02-28T06:35:22.602Z,9.18
2023-02-28T06:36:25.302Z,7.85
2023-02-28T06:37:27.946Z,10.95
2023-02-28T06:38:30.938Z,7.07
2023-02-28T06:39:33.583Z,8.55
2023-02-28T06:40:36.824Z,9.93
2023-02-28T06:41:53.651Z,8.27
2023-02-28T06:42:57.467Z,5.03
2023-02-28T06:44:00.261Z,8.82
2023-02-28T06:45:05.654Z,9.80
2023-02-28T06:46:10.032Z,6.25
2023-02-28T06:47:13.186Z,8.95
2023-02-28T06:48:15.991Z,8.55
2023-02-28T06:49:18.837Z,9.57
2023-02-28T06:50:21.600Z,8.23
2023-02-28T06:51:25.464Z,6.88
2023-02-28T06:52:28.190Z,8.18
2023-02-28T06:53:30.713Z,10.93
2023-02-28T06:54:33.110Z,10.00
2023-02-28T06:55:35.513Z,5.38
2023-02-28T06:56:38.274Z,9.60
2023-02-28T06:57:40.919Z,8.30
2023-02-28T06:58:46.700Z,9.90
2023-02-28T06:59:50.517Z,14.07
2023-02-28T07:00:53.775Z,5.15
2023-02-28T07:01:56.433Z,12.20
2023-02-28T07:02:58.800Z,7.90
2023-02-28T07:04:01.684Z,10.10
2023-02-28T07:05:07.439Z,9.05
2023-02-28T07:06:09.961Z,8.95
2023-02-28T07:07:12.596Z,10.07
2023-02-28T07:08:15.000Z,6.40
2023-02-28T07:09:17.515Z,9.73
2023-02-28T07:10:20.593Z,7.05
2023-02-28T07:11:26.840Z,8.15
2023-02-28T07:12:29.294Z,9.18
2023-02-28T07:13:31.806Z,20.83
2023-02-28T07:14:34.920Z,8.07
2023-02-28T07:15:41.190Z,7.75
2023-02-28T07:16:46.633Z,5.72
2023-02-28T07:17:49.203Z,6.32
2023-02-28T07:18:54.140Z,10.52
2023-02-28T07:19:56.651Z,5.72
2023-02-28T07:20:59.407Z,6.68
2023-02-28T07:22:03.868Z,6.95
2023-02-28T07:23:06.366Z,7.35
2023-02-28T07:24:09.366Z,8.38
2023-02-28T07:25:11.766Z,8.18
2023-02-28T07:26:16.685Z,6.05
2023-02-28T07:27:26.761Z,7.32
2023-02-28T07:28:29.286Z,9.27
2023-02-28T07:29:31.814Z,4.95
2023-02-28T07:30:34.336Z,9.23
2023-02-28T07:31:36.904Z,6.28
2023-02-28T07:32:39.255Z,5.43
2023-02-28T07:33:42.029Z,7.20
2023-02-28T07:34:44.531Z,7.63
2023-02-28T07:35:47.070Z,5.88
2023-02-28T07:36:49.813Z,5.97
2023-02-28T07:37:52.581Z,9.63
2023-02-28T07:38:55.138Z,6.78
2023-02-28T07:39:57.623Z,4.75
2023-02-28T07:41:00.138Z,5.35
2023-02-28T07:42:07.344Z,5.22
2023-02-28T07:43:09.861Z,5.60
2023-02-28T07:44:13.233Z,4.63
2023-02-28T07:45:15.748Z,4.10
2023-02-28T07:46:19.515Z,5.93
2023-02-28T07:47:24.465Z,4.90
2023-02-28T07:48:27.768Z,6.18
2023-02-28T07:49:30.271Z,8.70
2023-02-28T07:50:32.914Z,5.38
2023-02-28T07:51:35.450Z,6.88
2023-02-28T07:52:39.156Z,6.75
2023-02-28T07:53:41.675Z,7.65
2023-02-28T07:54:44.192Z,3.97
2023-02-28T07:55:46.712Z,4.93
2023-02-28T07:56:49.246Z,5.32
2023-02-28T07:57:51.809Z,4.07
2023-02-28T07:58:54.283Z,5.43
2023-02-28T07:59:56.921Z,9.52
2023-02-28T08:01:07.008Z,5.65
2023-02-28T08:02:17.681Z,6.28
2023-02-28T08:03:21.640Z,6.60
2023-02-28T08:04:24.164Z,5.22
2023-02-28T08:05:26.693Z,6.45
2023-02-28T08:06:29.084Z,6.32
2023-02-28T08:07:31.604Z,6.80
2023-02-28T08:08:34.386Z,5.85
2023-02-28T08:09:36.887Z,6.80
2023-02-28T08:10:39.525Z,8.40
2023-02-28T08:11:42.047Z,5.43
2023-02-28T08:12:44.570Z,5.10
2023-02-28T08:13:47.094Z,5.82
2023-02-28T08:14:49.727Z,5.07
2023-02-28T08:15:52.169Z,5.95
2023-02-28T08:16:55.492Z,8.13
2023-02-28T08:17:58.133Z,6.47
2023-02-28T08:19:00.671Z,8.02
2023-02-28T08:20:03.176Z,6.47
2023-02-28T08:21:09.651Z,13.50
2023-02-28T08:22:12.171Z,8.20
2023-02-28T08:23:14.696Z,6.30
2023-02-28T08:24:17.214Z,7.20
2023-02-28T08:25:19.853Z,6.20
2023-02-28T08:26:22.389Z,8.00
2023-02-28T08:27:24.800Z,6.15
2023-02-28T08:28:27.696Z,4.75
2023-02-28T08:29:31.275Z,6.30
2023-02-28T08:30:33.897Z,6.82
2023-02-28T08:31:36.656Z,3.50
2023-02-28T08:32:39.661Z,4.38
2023-02-28T08:33:42.664Z,5.65
2023-02-28T08:34:46.984Z,6.55
2023-02-28T08:35:54.711Z,4.47
2023-02-28T08:36:57.181Z,8.02
2023-02-28T08:37:59.700Z,3.53
2023-02-28T08:39:02.461Z,4.55
2023-02-28T08:40:05.475Z,4.05
2023-02-28T08:41:11.717Z,4.70
2023-02-28T08:42:14.230Z,6.68
2023-02-28T08:43:16.751Z,4.70
2023-02-28T08:44:19.151Z,6.40
2023-02-28T08:45:21.667Z,3.55
2023-02-28T08:46:24.939Z,7.00
2023-02-28T08:47:27.667Z,4.13
2023-02-28T08:48:32.955Z,5.28
2023-02-28T08:49:35.614Z,6.82
2023-02-28T08:50:38.109Z,4.57
2023-02-28T08:51:40.509Z,7.22
2023-02-28T08:52:46.099Z,5.95
2023-02-28T08:53:50.533Z,4.00
2023-02-28T08:54:53.012Z,5.03
2023-02-28T08:56:05.961Z,5.68
2023-02-28T08:57:08.468Z,4.60
2023-02-28T08:58:10.999Z,4.70
2023-02-28T08:59:13.510Z,2.63
2023-02-28T09:00:16.164Z,3.88
2023-02-28T09:01:21.598Z,6.90
2023-02-28T09:02:24.071Z,6.32
2023-02-28T09:03:28.174Z,3.70
2023-02-28T09:04:32.157Z,4.47
2023-02-28T09:05:34.655Z,5.80
2023-02-28T09:06:37.281Z,3.20
2023-02-28T09:07:39.797Z,4.40
2023-02-28T09:08:42.557Z,3.47
2023-02-28T09:09:54.978Z,3.58
2023-02-28T09:10:59.760Z,3.35
2023-02-28T09:12:03.242Z,6.43
2023-02-28T09:13:07.398Z,4.40
2023-02-28T09:14:09.932Z,4.00
2023-02-28T09:15:12.443Z,3.78
2023-02-28T09:16:20.273Z,2.42
2023-02-28T09:17:22.758Z,3.53
2023-02-28T09:18:25.283Z,4.15
2023-02-28T09:19:27.802Z,4.10
2023-02-28T09:20:30.324Z,3.03
2023-02-28T09:21:32.921Z,2.85
2023-02-28T09:22:35.382Z,4.85
2023-02-28T09:23:39.329Z,2.75
2023-02-28T09:24:41.855Z,4.10
2023-02-28T09:25:52.886Z,5.95
2023-02-28T09:27:04.568Z,4.35
2023-02-28T09:28:07.892Z,3.75
2023-02-28T09:29:11.133Z,3.83
2023-02-28T09:30:14.502Z,2.35
2023-02-28T09:31:23.253Z,2.60
2023-02-28T09:32:25.826Z,3.42
2023-02-28T09:33:28.441Z,4.43
2023-02-28T09:34:33.695Z,4.00
2023-02-28T09:35:38.139Z,2.88
2023-02-28T09:36:46.002Z,2.75
2023-02-28T09:37:55.418Z,2.33
2023-02-28T09:38:58.327Z,3.78
2023-02-28T09:40:00.816Z,2.17
2023-02-28T09:41:12.722Z,3.45
2023-02-28T09:42:32.379Z,2.72
2023-02-28T09:43:39.585Z,2.33
2023-02-28T09:44:46.200Z,3.28
2023-02-28T09:46:03.377Z,2.95
2023-02-28T09:47:16.305Z,2.47
2023-02-28T09:48:26.385Z,3.60
2023-02-28T09:49:41.387Z,3.08
2023-02-28T09:50:49.667Z,2.78
2023-02-28T09:51:59.996Z,3.08
2023-02-28T09:53:13.066Z,4.05
2023-02-28T09:54:21.836Z,2.50
2023-02-28T09:55:52.564Z,2.85
2023-02-28T09:57:00.952Z,1.55
2023-02-28T09:58:03.616Z,4.43
2023-02-28T09:59:28.074Z,4.50
2023-02-28T10:00:37.555Z,2.80
2023-02-28T10:01:44.253Z,4.05
2023-02-28T10:02:50.179Z,1.83
2023-02-28T10:03:59.996Z,2.88
2023-02-28T10:05:15.836Z,4.05
2023-02-28T10:06:20.884Z,2.35
2023-02-28T10:07:35.282Z,2.63
2023-02-28T10:09:02.560Z,3.08
2023-02-28T10:10:16.344Z,3.08
2023-02-28T10:11:21.845Z,2.55
2023-02-28T10:12:27.122Z,3.03
2023-02-28T10:13:59.041Z,2.83
2023-02-28T10:15:03.490Z,4.43
2023-02-28T10:16:28.952Z,1.92
2023-02-28T10:17:54.911Z,1.55
2023-02-28T10:19:27.127Z,3.83
2023-02-28T10:20:32.526Z,2.55
2023-02-28T10:21:47.414Z,2.63
2023-02-28T10:23:11.052Z,1.80
2023-02-28T10:24:26.891Z,3.47
2023-02-28T10:25:30.729Z,3.22
2023-02-28T10:26:34.342Z,3.20
2023-02-28T10:27:36.858Z,2.80
2023-02-28T10:28:41.202Z,4.57
2023-02-28T10:29:52.335Z,2.05
2023-02-28T10:30:56.017Z,1.92
2023-02-28T10:32:02.306Z,2.05
2023-02-28T10:33:04.877Z,2.72
2023-02-28T10:34:08.538Z,2.65
2023-02-28T10:35:11.177Z,4.88
2023-02-28T10:36:19.980Z,2.03
2023-02-28T10:37:22.818Z,3.55
2023-02-28T10:38:28.839Z,2.72
2023-02-28T10:39:40.479Z,3.10
2023-02-28T10:40:42.985Z,2.72
2023-02-28T10:41:45.622Z,3.35
2023-02-28T10:43:03.042Z,2.75
2023-02-28T10:44:16.835Z,1.63
2023-02-28T10:45:19.346Z,3.63
2023-02-28T10:46:27.994Z,2.60
2023-02-28T10:47:31.233Z,3.42
2023-02-28T10:49:04.469Z,1.95
2023-02-28T10:50:07.227Z,1.83
2023-02-28T10:51:12.774Z,1.75
2023-02-28T10:52:33.630Z,4.63
2023-02-28T10:53:57.528Z,3.92
2023-02-28T10:55:26.320Z,1.75
2023-02-28T10:56:30.142Z,2.25
2023-02-28T10:57:33.631Z,2.55
2023-02-28T10:58:54.037Z,1.90
2023-02-28T11:00:20.192Z,2.33
2023-02-28T11:01:31.875Z,2.78
2023-02-28T11:02:39.417Z,3.65
2023-02-28T11:03:42.032Z,1.95
2023-02-28T11:04:44.468Z,3.95
2023-02-28T11:05:48.035Z,2.17
2023-02-28T11:07:01.843Z,2.47
2023-02-28T11:08:13.854Z,2.40
2023-02-28T11:09:25.434Z,3.22
2023-02-28T11:10:31.839Z,2.90
2023-02-28T11:11:45.421Z,2.78
2023-02-28T11:12:52.928Z,3.55
2023-02-28T11:14:05.327Z,2.13
2023-02-28T11:15:19.026Z,2.35
2023-02-28T11:16:22.269Z,3.17
2023-02-28T11:17:31.001Z,3.08
2023-02-28T11:18:39.168Z,2.13
2023-02-28T11:19:47.922Z,3.00
2023-02-28T11:20:55.972Z,1.58
2023-02-28T11:22:01.411Z,2.80
2023-02-28T11:23:06.171Z,2.42
2023-02-28T11:24:24.166Z,2.10
2023-02-28T11:25:39.299Z,3.65
2023-02-28T11:26:49.376Z,2.90
2023-02-28T11:27:58.967Z,1.38
2023-02-28T11:29:13.139Z,3.22
2023-02-28T11:30:32.684Z,1.67
2023-02-28T11:31:35.265Z,2.13
2023-02-28T11:32:38.527Z,2.42
2023-02-28T11:33:52.487Z,1.60
2023-02-28T11:35:11.213Z,2.00
2023-02-28T11:36:29.221Z,1.42
2023-02-28T11:37:33.670Z,3.30
2023-02-28T11:38:37.378Z,2.75
2023-02-28T11:39:40.017Z,1.70
2023-02-28T11:40:57.174Z,1.50
2023-02-28T11:42:36.894Z,2.42
2023-02-28T11:43:42.184Z,1.98
2023-02-28T11:45:19.018Z,2.05
2023-02-28T11:46:47.840Z,1.83
2023-02-28T11:48:17.218Z,1.38
2023-02-28T11:49:47.219Z,3.05
2023-02-28T11:51:16.656Z,2.85
2023-02-28T11:52:38.467Z,3.83
2023-02-28T11:53:52.270Z,2.30
2023-02-28T11:55:00.666Z,1.55
2023-02-28T11:56:40.505Z,2.20
2023-02-28T11:58:06.906Z,2.65
2023-02-28T11:59:45.918Z,1.92
2023-02-28T12:01:25.997Z,2.35
2023-02-28T12:02:38.153Z,2.45
2023-02-28T12:03:56.361Z,2.88
2023-02-28T12:05:16.399Z,2.28
2023-02-28T12:06:40.285Z,1.70
2023-02-28T12:07:51.080Z,1.63
2023-02-28T12:10:20.388Z,3.25
2023-02-28T12:11:49.302Z,3.47
2023-02-28T12:13:05.968Z,3.33
2023-02-28T12:14:29.745Z,1.90
2023-02-28T12:15:41.009Z,2.95
2023-02-28T12:16:49.899Z,3.60
2023-02-28T12:18:13.893Z,2.60
2023-02-28T12:19:29.250Z,1.63
2023-02-28T12:20:34.546Z,2.55
2023-02-28T12:21:42.694Z,2.25
2023-02-28T12:23:02.059Z,5.47
2023-02-28T12:24:38.141Z,3.72
2023-02-28T12:25:55.061Z,1.92
2023-02-28T12:27:01.899Z,1.60
2023-02-28T12:28:05.256Z,1.60
2023-02-28T12:29:16.417Z,1.35
2023-02-28T12:30:36.588Z,3.97
2023-02-28T12:31:50.530Z,2.47
2023-02-28T12:33:16.778Z,1.85
2023-02-28T12:34:24.584Z,3.05
2023-02-28T12:35:37.815Z,3.65
2023-02-28T12:36:45.355Z,1.33
2023-02-28T12:37:58.421Z,1.65
2023-02-28T12:39:19.663Z,1.55
2023-02-28T12:40:43.180Z,2.38
2023-02-28T12:42:05.505Z,2.20
2023-02-28T12:43:10.904Z,4.95
2023-02-28T12:44:23.025Z,1.77
2023-02-28T12:45:33.253Z,1.50
2023-02-28T12:46:42.554Z,2.13
2023-02-28T12:47:49.784Z,2.38
2023-02-28T12:48:57.706Z,3.00
2023-02-28T12:50:07.551Z,2.40
2023-02-28T12:51:11.289Z,3.70
2023-02-28T12:52:18.587Z,2.42
2023-02-28T12:54:06.254Z,3.00
2023-02-28T12:56:05.629Z,3.17
2023-02-28T12:57:17.396Z,2.75
2023-02-28T12:58:32.638Z,2.55
2023-02-28T12:59:44.276Z,1.83
2023-02-28T13:01:08.538Z,1.70
2023-02-28T13:02:26.261Z,3.47
2023-02-28T13:03:46.677Z,2.13
2023-02-28T13:05:07.445Z,3.30
2023-02-28T13:06:36.597Z,5.18
2023-02-28T13:08:05.427Z,2.58
2023-02-28T13:09:15.730Z,1.50
2023-02-28T13:10:19.953Z,3.25
2023-02-28T13:11:41.285Z,2.78
2023-02-28T13:12:52.580Z,1.95
2023-02-28T13:14:04.689Z,1.95
2023-02-28T13:15:22.398Z,1.30
2023-02-28T13:16:24.975Z,2.83
2023-02-28T13:17:27.486Z,2.40
2023-02-28T13:18:47.403Z,3.60
2023-02-28T13:19:55.826Z,2.88
2023-02-28T13:20:58.445Z,2.80
2023-02-28T13:22:02.523Z,2.83
2023-02-28T13:23:06.725Z,2.38
2023-02-28T13:24:10.091Z,2.40
2023-02-28T13:25:24.488Z,3.90
2023-02-28T13:26:38.666Z,2.15
2023-02-28T13:27:42.971Z,2.42
2023-02-28T13:29:16.937Z,3.40
2023-02-28T13:30:57.044Z,1.30
2023-02-28T13:32:09.515Z,1.23
2023-02-28T13:33:32.528Z,3.17
2023-02-28T13:34:40.337Z,2.90
2023-02-28T13:35:46.285Z,2.80
2023-02-28T13:36:48.853Z,3.05
2023-02-28T13:37:52.817Z,2.53
2023-02-28T13:39:22.097Z,3.25
2023-02-28T13:40:38.207Z,2.35
2023-02-28T13:41:46.942Z,2.28
2023-02-28T13:42:51.640Z,5.88
2023-02-28T13:44:04.953Z,1.42
2023-02-28T13:45:07.724Z,2.45
2023-02-28T13:46:13.723Z,2.63
2023-02-28T13:47:25.829Z,2.35
2023-02-28T13:48:30.626Z,4.22
2023-02-28T13:49:35.021Z,2.53
2023-02-28T13:50:39.107Z,1.75
2023-02-28T13:51:47.933Z,2.25
2023-02-28T13:53:02.308Z,3.42
2023-02-28T13:54:17.191Z,2.10
2023-02-28T13:55:30.041Z,2.78
2023-02-28T13:56:46.597Z,3.08
2023-02-28T13:57:51.757Z,2.47
2023-02-28T13:59:23.552Z,2.17
2023-02-28T14:01:01.901Z,2.22
2023-02-28T14:02:50.174Z,4.05
2023-02-28T14:03:58.596Z,2.85
2023-02-28T14:05:12.522Z,1.27
2023-02-28T14:06:33.650Z,1.35
2023-02-28T14:07:58.133Z,3.92
2023-02-28T14:09:04.981Z,3.25
2023-02-28T14:10:10.243Z,2.60
2023-02-28T14:11:28.019Z,2.03
2023-02-28T14:12:58.814Z,3.30
2023-02-28T14:14:03.287Z,2.60
2023-02-28T14:15:34.424Z,3.28
2023-02-28T14:17:54.286Z,1.65
2023-02-28T14:19:01.852Z,2.90
2023-02-28T14:20:04.731Z,1.58
2023-02-28T14:21:26.457Z,2.10
2023-02-28T14:23:03.891Z,2.50
2023-02-28T14:24:55.373Z,1.77
2023-02-28T14:26:22.171Z,2.85
2023-02-28T14:27:48.670Z,2.25
2023-02-28T14:29:11.211Z,2.25
2023-02-28T14:31:01.385Z,2.60
2023-02-28T14:32:40.976Z,3.78
2023-02-28T14:34:13.495Z,3.28
2023-02-28T14:35:57.557Z,2.55
2023-02-28T14:37:03.306Z,2.15
2023-02-28T14:38:19.022Z,4.57
2023-02-28T14:39:25.025Z,5.57
2023-02-28T14:40:36.310Z,3.17
2023-02-28T14:41:41.222Z,4.03
2023-02-28T14:43:02.101Z,5.65
2023-02-28T14:44:19.272Z,1.45
2023-02-28T14:45:22.995Z,2.60
2023-02-28T14:46:31.465Z,1.98
2023-02-28T14:47:36.307Z,2.25
2023-02-28T14:48:40.029Z,3.05
2023-02-28T14:49:47.844Z,4.60
2023-02-28T14:50:53.355Z,2.15
2023-02-28T14:52:16.400Z,2.80
2023-02-28T14:53:22.028Z,1.63
2023-02-28T14:54:25.760Z,1.98
2023-02-28T14:55:31.631Z,2.17
2023-02-28T14:56:41.340Z,3.97
2023-02-28T14:57:56.952Z,2.83
2023-02-28T14:58:59.492Z,2.40
2023-02-28T15:00:11.955Z,4.28
2023-02-28T15:01:22.298Z,4.90
2023-02-28T15:02:26.845Z,2.55
2023-02-28T15:03:36.556Z,3.53
2023-02-28T15:04:39.126Z,3.65
2023-02-28T15:05:41.600Z,2.30
2023-02-28T15:06:44.122Z,3.15
2023-02-28T15:07:47.479Z,3.88
2023-02-28T15:09:07.774Z,2.70
2023-02-28T15:10:26.117Z,2.30
2023-02-28T15:11:28.891Z,2.92